Eye Of The Wind — GWAK — position and weather

sailwx.info

Track history (hours):
 
Tides and Currents Weather Stations Pressure Air Temp Water Temp Dewpoint Dewpoint Depression Visibility Wind Speed Wind Dir Waves Ship Positions

Eye Of The Wind

Last reported at 2018-Jun-16 23:45 UTC. Time now 2018-Jun-21 20:09 UTC.
Position N 54°59' E 010°11'.

Length 33 m; draft 2.8 m.

Type: Sailing vessel. MMSI: 233789000.

Date/timePositionNaut miles runAvg speedWind from/ knotsBaromVisibWave heightAir tempDewpointWater temp
2018-Jun-16 23:45N 54°59' E 010°11'2 5.5
2018-Jun-16 23:25N 54°58' E 010°14'2 6.1
2018-Jun-16 23:00N 54°57' E 010°18'3 5.9
2018-Jun-16 22:30N 54°56' E 010°23'13 0.8
2018-Jun-16 06:25N 54°46' E 010°07'3 7.1
2018-Jun-16 06:00N 54°43' E 010°05'  
2018-Jun-11 08:11N 54°41' E 009°57'1 5.4
2018-Jun-11 08:00N 54°40' E 009°56'0 1.0
2018-Jun-11 07:30N 54°39' E 009°56'0 0.0
2018-Jun-11 07:00N 54°39' E 009°56'0 0.0
2018-Jun-11 06:30N 54°39' E 009°56'0 0.0
2018-Jun-11 06:00N 54°39' E 009°56'0 0.0
2018-Jun-11 05:30N 54°39' E 009°56'0 0.0
2018-Jun-11 05:00N 54°39' E 009°56'0 0.0
2018-Jun-11 04:30N 54°39' E 009°56'0 0.0
2018-Jun-11 04:00N 54°39' E 009°56'0 0.0
2018-Jun-11 03:29N 54°39' E 009°56'0 0.0
2018-Jun-11 03:00N 54°39' E 009°56'0 0.0
2018-Jun-11 02:30N 54°39' E 009°56'0 0.0
2018-Jun-11 02:00N 54°39' E 009°56'0 0.0
2018-Jun-11 01:30N 54°39' E 009°56'0 0.0
2018-Jun-11 01:00N 54°39' E 009°56'0 0.0
2018-Jun-11 00:30N 54°39' E 009°56'0 0.0
2018-Jun-11 00:00N 54°39' E 009°56'0 0.0
2018-Jun-10 23:30N 54°39' E 009°56'0 0.0
2018-Jun-10 23:01N 54°39' E 009°56'0 0.0
2018-Jun-10 22:30N 54°39' E 009°56'0 0.0
2018-Jun-10 22:00N 54°39' E 009°56'0 0.0
2018-Jun-10 21:30N 54°39' E 009°56'0 0.0
2018-Jun-10 21:00N 54°39' E 009°56'0 0.0
2018-Jun-10 20:30N 54°39' E 009°56'0 0.0
2018-Jun-10 20:00N 54°39' E 009°56'0 0.0
2018-Jun-10 19:31N 54°39' E 009°56'0 0.0
2018-Jun-10 19:00N 54°39' E 009°56'0 0.0
2018-Jun-10 18:30N 54°39' E 009°56'0 0.0
2018-Jun-10 18:00N 54°39' E 009°56'0 0.0
2018-Jun-10 17:30N 54°39' E 009°56'0 0.0
2018-Jun-10 17:00N 54°39' E 009°56'0 0.0
2018-Jun-10 16:30N 54°39' E 009°56'0 0.0
2018-Jun-10 16:00N 54°39' E 009°56'0 0.0
2018-Jun-10 15:30N 54°39' E 009°56'0 0.0
2018-Jun-10 15:00N 54°39' E 009°56'0 0.0
2018-Jun-10 14:30N 54°39' E 009°56'0 0.0
2018-Jun-10 13:30N 54°39' E 009°56'0 0.0
2018-Jun-10 13:00N 54°39' E 009°56'11 4.1
2018-Jun-10 10:25N 54°42' E 010°14'3 5.9
2018-Jun-10 09:59N 54°44' E 010°17'3 6.2
2018-Jun-10 09:30N 54°46' E 010°21'1 2.7
2018-Jun-10 08:59N 54°47' E 010°22'1 2.3
2018-Jun-10 08:30N 54°48' E 010°24'2 3.1
2018-Jun-10 07:59N 54°48' E 010°26'3 6.1
2018-Jun-10 07:30N 54°50' E 010°31'2 1.2
2018-Jun-10 06:13N 54°51' E 010°31'0 0.0
2018-Jun-10 05:54N 54°51' E 010°31'0 0.0
2018-Jun-10 05:29N 54°51' E 010°31'0 0.0
2018-Jun-10 05:00N 54°51' E 010°31'0 0.0
2018-Jun-10 04:30N 54°51' E 010°31'0 0.0
2018-Jun-10 03:59N 54°51' E 010°31'0 0.0
2018-Jun-10 03:30N 54°51' E 010°31'0 0.0
2018-Jun-10 03:00N 54°51' E 010°31'0 0.0
2018-Jun-10 02:30N 54°51' E 010°31'0 0.0
2018-Jun-10 02:00N 54°51' E 010°31'0 0.0
2018-Jun-10 01:30N 54°51' E 010°31'0 0.0
2018-Jun-10 01:00N 54°51' E 010°31'0 0.0
2018-Jun-10 00:30N 54°51' E 010°31'0 0.0
2018-Jun-09 23:57N 54°51' E 010°31'0 0.0
2018-Jun-09 23:29N 54°51' E 010°31'0 0.0
2018-Jun-09 22:45N 54°51' E 010°31'0 0.0
2018-Jun-09 22:14N 54°51' E 010°31'0 0.0
2018-Jun-09 21:52N 54°51' E 010°31'0 0.0
2018-Jun-09 21:29N 54°51' E 010°31'0 0.0
2018-Jun-09 21:00N 54°51' E 010°31'0 0.0
2018-Jun-09 19:12N 54°51' E 010°31'0 0.0
2018-Jun-09 18:58N 54°51' E 010°31'0 0.0
2018-Jun-09 18:04N 54°51' E 010°31'0 0.0
2018-Jun-09 18:00N 54°51' E 010°31'0 0.0
2018-Jun-09 16:53N 54°51' E 010°31'0 0.0
2018-Jun-09 16:24N 54°51' E 010°31'0 0.0
2018-Jun-09 15:58N 54°51' E 010°31'0 0.0
2018-Jun-09 15:30N 54°51' E 010°31'0 0.0
2018-Jun-09 14:29N 54°51' E 010°31'1 2.4
2018-Jun-09 14:00N 54°50' E 010°32'3 5.5
2018-Jun-09 13:30N 54°48' E 010°30'4 5.9
2018-Jun-09 12:47N 54°45' E 010°25'2 5.9
2018-Jun-09 12:25N 54°43' E 010°22'10 4.8
2018-Jun-09 10:19N 54°34' E 010°16'1 2.3
2018-Jun-09 09:56N 54°33' E 010°16'1 2.2
2018-Jun-09 09:30N 54°32' E 010°16'1 2.2
2018-Jun-09 08:51N 54°31' E 010°16'1 2.6
2018-Jun-09 08:22N 54°29' E 010°16'7 5.5
2018-Jun-09 07:05N 54°23' E 010°11'1 5.5
2018-Jun-09 06:51N 54°22' E 010°09'0 0.7
2018-Jun-09 06:30N 54°22' E 010°09'0 0.0
2018-Jun-09 05:42N 54°22' E 010°09'0 0.0
2018-Jun-09 05:16N 54°22' E 010°09'0 0.0
2018-Jun-09 04:32N 54°22' E 010°09'0 0.1
2018-Jun-09 04:28N 54°22' E 010°09'0 0.0
2018-Jun-09 04:00N 54°22' E 010°09'0 0.0
2018-Jun-09 03:29N 54°22' E 010°09'0 0.0
2018-Jun-09 03:00N 54°22' E 010°09'0 0.0
2018-Jun-09 02:18N 54°22' E 010°09'0 0.0
2018-Jun-09 02:00N 54°22' E 010°09'0 0.0
2018-Jun-09 01:27N 54°22' E 010°09'0 0.0
2018-Jun-09 00:59N 54°22' E 010°09'0 0.0
2018-Jun-09 00:30N 54°22' E 010°09'0 0.0
2018-Jun-08 23:58N 54°22' E 010°09'0 0.0
2018-Jun-08 23:30N 54°22' E 010°09'0 0.0
2018-Jun-08 22:58N 54°22' E 010°09'0 0.0
2018-Jun-08 22:30N 54°22' E 010°09'0 0.0
2018-Jun-08 09:15N 54°22' E 010°09'0 0.0
2018-Jun-08 05:25N 54°22' E 010°09'0 0.0
2018-Jun-08 04:47N 54°22' E 010°09'0 0.0
2018-Jun-08 04:10N 54°22' E 010°09'0 0.0
2018-Jun-08 04:00N 54°22' E 010°09'0 0.0
2018-Jun-08 03:30N 54°22' E 010°09'0 0.0
2018-Jun-08 02:58N 54°22' E 010°09'0 0.0
2018-Jun-08 02:29N 54°22' E 010°09'0 0.0
2018-Jun-08 01:59N 54°22' E 010°09'0 0.0
2018-Jun-08 00:57N 54°22' E 010°09'0 0.0
2018-Jun-08 00:24N 54°22' E 010°09'0 0.0
2018-Jun-08 00:00N 54°22' E 010°09'0 0.0
2018-Jun-07 23:24N 54°22' E 010°09'0 0.0
2018-Jun-07 23:00N 54°22' E 010°09'0 0.0
2018-Jun-07 22:00N 54°22' E 010°09'0 0.0
2018-Jun-07 21:29N 54°22' E 010°09'9 0.9
2018-Jun-07 12:06N 54°30' E 010°13'1 6.1
2018-Jun-07 11:54N 54°32' E 010°13'3 5.6
2018-Jun-07 11:24N 54°34' E 010°13'3 6.5
2018-Jun-07 10:58N 54°37' E 010°13'  
Track history (hours):
 
Tides and Currents Weather Stations Pressure Air Temp Water Temp Dewpoint Dewpoint Depression Visibility Wind Speed Wind Dir Waves Ship Positions

Eye Of The Wind

Last reported at 2018-Jun-16 23:45 UTC. Time now 2018-Jun-21 20:09 UTC.
Position N 54°59' E 010°11'.

Length 33 m; draft 2.8 m.

Type: Sailing vessel. MMSI: 233789000.

Date/timePositionNaut miles runAvg speedWind from/ knotsBaromVisibWave heightAir tempDewpointWater temp
2018-Jun-16 23:45N 54°59' E 010°11'2 5.5
2018-Jun-16 23:25N 54°58' E 010°14'2 6.1
2018-Jun-16 23:00N 54°57' E 010°18'3 5.9
2018-Jun-16 22:30N 54°56' E 010°23'13 0.8
2018-Jun-16 06:25N 54°46' E 010°07'3 7.1
2018-Jun-16 06:00N 54°43' E 010°05'  
2018-Jun-11 08:11N 54°41' E 009°57'1 5.4
2018-Jun-11 08:00N 54°40' E 009°56'0 1.0
2018-Jun-11 07:30N 54°39' E 009°56'0 0.0
2018-Jun-11 07:00N 54°39' E 009°56'0 0.0
2018-Jun-11 06:30N 54°39' E 009°56'0 0.0
2018-Jun-11 06:00N 54°39' E 009°56'0 0.0
2018-Jun-11 05:30N 54°39' E 009°56'0 0.0
2018-Jun-11 05:00N 54°39' E 009°56'0 0.0
2018-Jun-11 04:30N 54°39' E 009°56'0 0.0
2018-Jun-11 04:00N 54°39' E 009°56'0 0.0
2018-Jun-11 03:29N 54°39' E 009°56'0 0.0
2018-Jun-11 03:00N 54°39' E 009°56'0 0.0
2018-Jun-11 02:30N 54°39' E 009°56'0 0.0
2018-Jun-11 02:00N 54°39' E 009°56'0 0.0
2018-Jun-11 01:30N 54°39' E 009°56'0 0.0
2018-Jun-11 01:00N 54°39' E 009°56'0 0.0
2018-Jun-11 00:30N 54°39' E 009°56'0 0.0
2018-Jun-11 00:00N 54°39' E 009°56'0 0.0
2018-Jun-10 23:30N 54°39' E 009°56'0 0.0
2018-Jun-10 23:01N 54°39' E 009°56'0 0.0
2018-Jun-10 22:30N 54°39' E 009°56'0 0.0
2018-Jun-10 22:00N 54°39' E 009°56'0 0.0
2018-Jun-10 21:30N 54°39' E 009°56'0 0.0
2018-Jun-10 21:00N 54°39' E 009°56'0 0.0
2018-Jun-10 20:30N 54°39' E 009°56'0 0.0
2018-Jun-10 20:00N 54°39' E 009°56'0 0.0
2018-Jun-10 19:31N 54°39' E 009°56'0 0.0
2018-Jun-10 19:00N 54°39' E 009°56'0 0.0
2018-Jun-10 18:30N 54°39' E 009°56'0 0.0
2018-Jun-10 18:00N 54°39' E 009°56'0 0.0
2018-Jun-10 17:30N 54°39' E 009°56'0 0.0
2018-Jun-10 17:00N 54°39' E 009°56'0 0.0
2018-Jun-10 16:30N 54°39' E 009°56'0 0.0
2018-Jun-10 16:00N 54°39' E 009°56'0 0.0
2018-Jun-10 15:30N 54°39' E 009°56'0 0.0
2018-Jun-10 15:00N 54°39' E 009°56'0 0.0
2018-Jun-10 14:30N 54°39' E 009°56'0 0.0
2018-Jun-10 13:30N 54°39' E 009°56'0 0.0
2018-Jun-10 13:00N 54°39' E 009°56'11 4.1
2018-Jun-10 10:25N 54°42' E 010°14'3 5.9
2018-Jun-10 09:59N 54°44' E 010°17'3 6.2
2018-Jun-10 09:30N 54°46' E 010°21'1 2.7
2018-Jun-10 08:59N 54°47' E 010°22'1 2.3
2018-Jun-10 08:30N 54°48' E 010°24'2 3.1
2018-Jun-10 07:59N 54°48' E 010°26'3 6.1
2018-Jun-10 07:30N 54°50' E 010°31'2 1.2
2018-Jun-10 06:13N 54°51' E 010°31'0 0.0
2018-Jun-10 05:54N 54°51' E 010°31'0 0.0
2018-Jun-10 05:29N 54°51' E 010°31'0 0.0
2018-Jun-10 05:00N 54°51' E 010°31'0 0.0
2018-Jun-10 04:30N 54°51' E 010°31'0 0.0
2018-Jun-10 03:59N 54°51' E 010°31'0 0.0
2018-Jun-10 03:30N 54°51' E 010°31'0 0.0
2018-Jun-10 03:00N 54°51' E 010°31'0 0.0
2018-Jun-10 02:30N 54°51' E 010°31'0 0.0
2018-Jun-10 02:00N 54°51' E 010°31'0 0.0
2018-Jun-10 01:30N 54°51' E 010°31'0 0.0
2018-Jun-10 01:00N 54°51' E 010°31'0 0.0
2018-Jun-10 00:30N 54°51' E 010°31'0 0.0
2018-Jun-09 23:57N 54°51' E 010°31'0 0.0
2018-Jun-09 23:29N 54°51' E 010°31'0 0.0
2018-Jun-09 22:45N 54°51' E 010°31'0 0.0
2018-Jun-09 22:14N 54°51' E 010°31'0 0.0
2018-Jun-09 21:52N 54°51' E 010°31'0 0.0
2018-Jun-09 21:29N 54°51' E 010°31'0 0.0
2018-Jun-09 21:00N 54°51' E 010°31'0 0.0
2018-Jun-09 19:12N 54°51' E 010°31'0 0.0
2018-Jun-09 18:58N 54°51' E 010°31'0 0.0
2018-Jun-09 18:04N 54°51' E 010°31'0 0.0
2018-Jun-09 18:00N 54°51' E 010°31'0 0.0
2018-Jun-09 16:53N 54°51' E 010°31'0 0.0
2018-Jun-09 16:24N 54°51' E 010°31'0 0.0
2018-Jun-09 15:58N 54°51' E 010°31'0 0.0
2018-Jun-09 15:30N 54°51' E 010°31'0 0.0
2018-Jun-09 14:29N 54°51' E 010°31'1 2.4
2018-Jun-09 14:00N 54°50' E 010°32'3 5.5
2018-Jun-09 13:30N 54°48' E 010°30'4 5.9
2018-Jun-09 12:47N 54°45' E 010°25'2 5.9
2018-Jun-09 12:25N 54°43' E 010°22'10 4.8
2018-Jun-09 10:19N 54°34' E 010°16'1 2.3
2018-Jun-09 09:56N 54°33' E 010°16'1 2.2
2018-Jun-09 09:30N 54°32' E 010°16'1 2.2
2018-Jun-09 08:51N 54°31' E 010°16'1 2.6
2018-Jun-09 08:22N 54°29' E 010°16'7 5.5
2018-Jun-09 07:05N 54°23' E 010°11'1 5.5
2018-Jun-09 06:51N 54°22' E 010°09'0 0.7
2018-Jun-09 06:30N 54°22' E 010°09'0 0.0
2018-Jun-09 05:42N 54°22' E 010°09'0 0.0
2018-Jun-09 05:16N 54°22' E 010°09'0 0.0
2018-Jun-09 04:32N 54°22' E 010°09'0 0.1
2018-Jun-09 04:28N 54°22' E 010°09'0 0.0
2018-Jun-09 04:00N 54°22' E 010°09'0 0.0
2018-Jun-09 03:29N 54°22' E 010°09'0 0.0
2018-Jun-09 03:00N 54°22' E 010°09'0 0.0
2018-Jun-09 02:18N 54°22' E 010°09'0 0.0
2018-Jun-09 02:00N 54°22' E 010°09'0 0.0
2018-Jun-09 01:27N 54°22' E 010°09'0 0.0
2018-Jun-09 00:59N 54°22' E 010°09'0 0.0
2018-Jun-09 00:30N 54°22' E 010°09'0 0.0
2018-Jun-08 23:58N 54°22' E 010°09'0 0.0
2018-Jun-08 23:30N 54°22' E 010°09'0 0.0
2018-Jun-08 22:58N 54°22' E 010°09'0 0.0
2018-Jun-08 22:30N 54°22' E 010°09'0 0.0
2018-Jun-08 09:15N 54°22' E 010°09'0 0.0
2018-Jun-08 05:25N 54°22' E 010°09'0 0.0
2018-Jun-08 04:47N 54°22' E 010°09'0 0.0
2018-Jun-08 04:10N 54°22' E 010°09'0 0.0
2018-Jun-08 04:00N 54°22' E 010°09'0 0.0
2018-Jun-08 03:30N 54°22' E 010°09'0 0.0
2018-Jun-08 02:58N 54°22' E 010°09'0 0.0
2018-Jun-08 02:29N 54°22' E 010°09'0 0.0
2018-Jun-08 01:59N 54°22' E 010°09'0 0.0
2018-Jun-08 00:57N 54°22' E 010°09'0 0.0
2018-Jun-08 00:24N 54°22' E 010°09'0 0.0
2018-Jun-08 00:00N 54°22' E 010°09'0 0.0
2018-Jun-07 23:24N 54°22' E 010°09'0 0.0
2018-Jun-07 23:00N 54°22' E 010°09'0 0.0
2018-Jun-07 22:00N 54°22' E 010°09'0 0.0
2018-Jun-07 21:29N 54°22' E 010°09'9 0.9
2018-Jun-07 12:06N 54°30' E 010°13'1 6.1
2018-Jun-07 11:54N 54°32' E 010°13'3 5.6
2018-Jun-07 11:24N 54°34' E 010°13'3 6.5
2018-Jun-07 10:58N 54°37' E 010°13'  

Dump ship's entire track history